Terminal Aerodrome Forecast
Issued by NWS

Home | Current Version | Previous Version | Text Only | Print | Product List | Glossary Off
Versions: 1 2 3 4 5 6 7 8 9 10 11 12 13 14

000
FTUS43 KMPX 160520
TAFRWF
TAF
KRWF 160520Z 1606/1706 13008KT P6SM VCSH SCT060 OVC080
     FM160900 15006KT P6SM SCT030 OVC050
     FM161600 23005KT P6SM BKN050 OVC120
     FM162200 28008KT P6SM SCT050 BKN200
     FM170100 31004KT P6SM SCT200=

USA.gov is the U.S. government's official web portal to all federal, state and local government web resources and services.